Duluth International Airport Duluth US
ICAO: KDLH
IATA: DLH
Category: Large
Scheduled Services: Yes

Elevation: 1428 ft
TransAlt. 18000 ft.

Airport Communications:
APP/DEP:125.45
ATIS:124.1
GND:121.9
ANG COMD POST:28.89
PTD:28.89
PRINCETON RDO:122.35
TWR:118.3
UNICOM:122.95

KDLH Zoom In..

If you have problems with the map follow the link
https://www.worldairports.se/pages/airport.php?
ICAO=KDLH

Runways:

(A) RW 03 length 5719 ft width 150 ft
---- / hdg 30

(B) RW 09 length 10162 ft width 150 ft
ILS 110.30 / hdg 90

(C) RW 21 length 5719 ft width 150 ft
---- / hdg 210

(D) RW 27 length 10162 ft width 150 ft
ILS 108.70 / hdg 270

Location; KDLH
Day. 18 / Time. 05.55 Zulu
* Altimeter: 30.35
* Temperature: -01° c. -30.2°f.
* Wind from: 240° Speed 03 kn.
Dewpoint: -11° c.
Visibility: 10 Statute Miles.
Clouds: Clear (automated report).

KDLH 180555Z 24003KT 10SM CLR M01/M11 A3035 RMK AO2 SLP298 T10111106 10022 21022 400611022 58005


Wind From 240°
Speed 03 kn.

 
 
jpsmedia.com for Web Design worldairports.se 2018   terms of use